Time;durP1;ratioP1;P1;durP2;ratioP2;P2;SDS_P1;SDS_P2;PMS_P1;PMS_P2;Temp;Humidity;BMP_temperature;BMP_pressure;BME280_temperature;BME280_humidity;BME280_pressure;Samples;Min_cycle;Max_cycle;Signal;HPM_P1;HPM_P2
2023/05/12 00:01:56;;;;;;;;;;;10.70;99.90;;;;;;5011938;28;20068;-71
2023/05/12 00:04:21;;;;;;;;;;;10.80;99.90;;;;;;5011769;28;19977;-71
2023/05/12 00:06:47;;;;;;;;;;;10.80;99.90;;;;;;5010954;28;20028;-71
2023/05/12 00:09:13;;;;;;;;;;;11.10;99.90;;;;;;5011709;28;19925;-72
2023/05/12 00:11:40;;;;;;;;;;;10.80;99.90;;;;;;5010869;28;20298;-72
2023/05/12 00:14:06;;;;;;;;;;;10.70;99.90;;;;;;4977742;28;19976;-71
2023/05/12 00:16:31;;;;;;;;;;;10.70;99.90;;;;;;4994625;28;20034;-71
2023/05/12 00:18:57;;;;;;;;;;;10.70;99.90;;;;;;4993293;28;20005;-71
2023/05/12 00:21:23;;;;;;;;;;;10.70;99.90;;;;;;5011469;28;19976;-72
2023/05/12 00:23:48;;;;;;;;;;;10.70;99.90;;;;;;5011391;28;20019;-72
2023/05/12 00:26:14;;;;;;;;;;;11.00;99.90;;;;;;4993646;28;19936;-72
2023/05/12 00:28:39;;;;;;;;;;;10.70;99.90;;;;;;4994079;28;19933;-72
2023/05/12 00:31:05;;;;;;;;;;;10.70;99.90;;;;;;4994222;28;19952;-72
2023/05/12 00:33:33;;;;;;;;;;;10.70;99.90;;;;;;5010723;28;19933;-72
2023/05/12 00:36:02;;;;;;;;;;;10.80;99.90;;;;;;4993936;28;19926;-73
2023/05/12 00:38:28;;;;;;;;;;;10.90;99.90;;;;;;5011244;28;19932;-72
2023/05/12 00:40:54;;;;;;;;;;;10.80;99.90;;;;;;5010421;28;19929;-72
2023/05/12 00:43:19;;;;;;;;;;;10.70;99.90;;;;;;5011619;28;19925;-72
2023/05/12 00:45:45;;;;;;;;;;;10.70;99.90;;;;;;5013110;28;19967;-71
2023/05/12 00:48:10;;;;;;;;;;;10.90;99.90;;;;;;5014969;28;20008;-72
2023/05/12 00:50:36;;;;;;;;;;;10.70;99.90;;;;;;4999073;28;19955;-72
2023/05/12 00:53:02;;;;;;;;;;;10.70;99.90;;;;;;5016809;28;19925;-73
2023/05/12 00:55:29;;;;;;;;;;;10.70;99.90;;;;;;5001882;28;19925;-72
2023/05/12 00:57:54;;;;;;;;;;;10.70;99.90;;;;;;5019429;28;20345;-72
2023/05/12 01:00:21;;;;;;;;;;;10.80;99.90;;;;;;5000853;28;19975;-72
2023/05/12 01:02:46;;;;;;;;;;;10.80;99.90;;;;;;5014454;28;19929;-72
2023/05/12 01:05:15;;;;;;;;;;;10.80;99.90;;;;;;4997624;28;19921;-72
2023/05/12 01:07:45;;;;;;;;;;;10.80;99.90;;;;;;5015246;28;19936;-72
2023/05/12 01:10:17;;;;;;;;;;;10.90;99.90;;;;;;5014127;28;20381;-72
2023/05/12 01:12:42;;;;;;;;;;;10.90;99.90;;;;;;4997547;28;19926;-71
2023/05/12 01:15:09;;;;;;;;;;;10.90;99.90;;;;;;5014137;28;20274;-72
2023/05/12 01:17:35;;;;;;;;;;;10.90;99.90;;;;;;5015220;28;19952;-72
2023/05/12 01:20:04;;;;;;;;;;;10.90;99.90;;;;;;5014544;28;19925;-71
2023/05/12 01:22:33;;;;;;;;;;;11.00;99.90;;;;;;5014130;28;19925;-72
2023/05/12 01:25:03;;;;;;;;;;;10.90;99.90;;;;;;4997404;28;19935;-72
2023/05/12 01:27:29;;;;;;;;;;;12.20;99.90;;;;;;5014893;28;19929;-72
2023/05/12 01:29:56;;;;;;;;;;;11.00;99.90;;;;;;4996530;28;19925;-72
2023/05/12 01:32:22;;;;;;;;;;;11.00;99.90;;;;;;5014547;28;20304;-72
2023/05/12 01:34:49;;;;;;;;;;;11.00;99.90;;;;;;5013577;28;20016;-72
2023/05/12 01:37:14;;;;;;;;;;;11.00;99.90;;;;;;5013891;28;19930;-71
2023/05/12 01:39:40;;;;;;;;;;;11.00;99.90;;;;;;5014657;28;19926;-72
2023/05/12 01:42:05;;;;;;;;;;;11.00;99.90;;;;;;5014258;28;19933;-71
2023/05/12 01:44:31;;;;;;;;;;;11.00;99.90;;;;;;4996252;28;19929;-72
2023/05/12 01:46:57;;;;;;;;;;;11.00;99.90;;;;;;5014704;28;19929;-72
2023/05/12 01:49:22;;;;;;;;;;;11.00;99.90;;;;;;5014225;28;19925;-72
2023/05/12 01:51:48;;;;;;;;;;;11.00;99.90;;;;;;4996385;28;20021;-72
2023/05/12 01:54:13;;;;;;;;;;;11.00;99.90;;;;;;4996507;28;19925;-72
2023/05/12 01:56:39;;;;;;;;;;;11.00;99.90;;;;;;5014632;28;19925;-72
2023/05/12 01:59:05;;;;;;;;;;;11.00;99.90;;;;;;5012892;28;20376;-71
2023/05/12 02:01:31;;;;;;;;;;;11.00;99.90;;;;;;4996415;28;20020;-72
2023/05/12 02:03:57;;;;;;;;;;;11.00;99.90;;;;;;5013578;28;19933;-72
2023/05/12 02:06:23;;;;;;;;;;;11.00;99.90;;;;;;5013173;28;20289;-71
2023/05/12 02:08:49;;;;;;;;;;;11.00;99.90;;;;;;4996664;28;19925;-71
2023/05/12 02:11:14;;;;;;;;;;;11.00;99.90;;;;;;5013138;28;20447;-72
2023/05/12 02:13:41;;;;;;;;;;;11.00;99.90;;;;;;5014021;28;20063;-71
2023/05/12 02:16:06;;;;;;;;;;;12.10;99.90;;;;;;4996303;28;20281;-72
2023/05/12 02:18:32;;;;;;;;;;;11.00;99.90;;;;;;4995598;28;19937;-72
2023/05/12 02:20:57;;;;;;;;;;;11.00;99.90;;;;;;5013583;28;20419;-72
2023/05/12 02:23:23;;;;;;;;;;;11.00;99.90;;;;;;5013285;28;20462;-72
2023/05/12 02:25:49;;;;;;;;;;;11.00;99.90;;;;;;4995147;28;19933;-71
2023/05/12 02:28:14;;;;;;;;;;;11.00;99.90;;;;;;4995179;28;20300;-71
2023/05/12 02:30:44;;;;;;;;;;;11.00;99.90;;;;;;5012760;28;20388;-72
2023/05/12 02:33:09;;;;;;;;;;;11.00;99.90;;;;;;4995537;28;19925;-72
2023/05/12 02:35:35;;;;;;;;;;;11.00;99.90;;;;;;4995853;28;20388;-72
2023/05/12 02:38:01;;;;;;;;;;;11.10;99.90;;;;;;5013549;28;19926;-73
2023/05/12 02:40:26;;;;;;;;;;;11.00;99.90;;;;;;4994621;28;19976;-72
2023/05/12 02:42:52;;;;;;;;;;;11.00;99.90;;;;;;4995786;28;20576;-72
2023/05/12 02:45:18;;;;;;;;;;;11.10;99.90;;;;;;4995971;28;20408;-71
2023/05/12 02:47:43;;;;;;;;;;;11.10;99.90;;;;;;4995265;28;20308;-71
2023/05/12 02:50:09;;;;;;;;;;;11.10;99.90;;;;;;4995442;28;19979;-72
2023/05/12 02:52:34;;;;;;;;;;;11.10;99.90;;;;;;4995922;28;19926;-72
2023/05/12 02:55:00;;;;;;;;;;;11.00;99.90;;;;;;4994640;28;20391;-72
2023/05/12 02:57:31;;;;;;;;;;;11.00;99.90;;;;;;5012919;28;20415;-72
2023/05/12 02:59:57;;;;;;;;;;;11.10;99.90;;;;;;5012574;28;20302;-72
2023/05/12 03:02:22;;;;;;;;;;;11.00;99.90;;;;;;5011697;28;19926;-73
2023/05/12 03:04:48;;;;;;;;;;;12.00;99.90;;;;;;5012810;28;19936;-72
2023/05/12 03:07:13;;;;;;;;;;;11.10;99.90;;;;;;4995441;28;19925;-71
2023/05/12 03:09:39;;;;;;;;;;;11.10;99.90;;;;;;4993893;28;20258;-72
2023/05/12 03:12:05;;;;;;;;;;;11.10;99.90;;;;;;5012661;28;19925;-72
2023/05/12 03:14:30;;;;;;;;;;;11.10;99.90;;;;;;5012371;28;19933;-72
2023/05/12 03:16:56;;;;;;;;;;;11.60;99.90;;;;;;4994981;28;19983;-72
2023/05/12 03:19:22;;;;;;;;;;;11.10;99.90;;;;;;5012407;28;20346;-71
2023/05/12 03:21:47;;;;;;;;;;;11.10;99.90;;;;;;5011821;28;20782;-72
2023/05/12 03:24:13;;;;;;;;;;;11.10;99.90;;;;;;5013138;28;19926;-72
2023/05/12 03:26:38;;;;;;;;;;;11.10;99.90;;;;;;4994748;28;19921;-72
2023/05/12 03:29:04;;;;;;;;;;;11.10;99.90;;;;;;4994235;28;19925;-72
2023/05/12 03:31:29;;;;;;;;;;;11.10;99.90;;;;;;5012608;28;20301;-72
2023/05/12 03:33:58;;;;;;;;;;;11.50;99.90;;;;;;4994771;28;19925;-71
2023/05/12 03:36:23;;;;;;;;;;;11.10;99.90;;;;;;5011229;28;20297;-72
2023/05/12 03:38:49;;;;;;;;;;;11.20;99.90;;;;;;4994402;28;19925;-71
2023/05/12 03:41:15;;;;;;;;;;;11.10;99.90;;;;;;5012416;28;19929;-73
2023/05/12 03:43:41;;;;;;;;;;;11.20;99.90;;;;;;5011640;28;19930;-72
2023/05/12 03:46:06;;;;;;;;;;;11.20;99.90;;;;;;5011714;28;20020;-71
2023/05/12 03:48:32;;;;;;;;;;;11.20;99.90;;;;;;4994424;28;20020;-71
2023/05/12 03:50:57;;;;;;;;;;;11.20;99.90;;;;;;5011469;28;19929;-72
2023/05/12 03:53:23;;;;;;;;;;;11.20;99.90;;;;;;5012301;28;20016;-71
2023/05/12 03:55:48;;;;;;;;;;;11.20;99.90;;;;;;5011520;28;19929;-74
2023/05/12 03:58:14;;;;;;;;;;;11.40;99.90;;;;;;5012354;28;19925;-74
2023/05/12 04:00:39;;;;;;;;;;;11.40;99.90;;;;;;5011741;28;20445;-76
2023/05/12 04:03:05;;;;;;;;;;;11.80;99.90;;;;;;5011858;28;19952;-75
2023/05/12 04:16:12;;;;;;;;;;;11.10;99.90;;;;;;4995044;28;19921;-75
2023/05/12 04:39:35;;;;;;;;;;;11.00;99.90;;;;;;4933584;28;19922;-77
2023/05/12 05:09:38;;;;;;;;;;;11.50;99.90;;;;;;4931234;29;19918;-76
2023/05/12 05:12:07;;;;;;;;;;;11.30;99.90;;;;;;4930927;29;20398;-73
2023/05/12 05:14:32;;;;;;;;;;;11.70;99.90;;;;;;4931275;29;19927;-73
2023/05/12 05:16:58;;;;;;;;;;;11.70;99.90;;;;;;4974425;28;19937;-73
2023/05/12 05:19:24;;;;;;;;;;;12.40;99.90;;;;;;4990397;28;20316;-73
2023/05/12 05:21:50;;;;;;;;;;;11.90;99.90;;;;;;4989505;28;20008;-72
2023/05/12 05:24:15;;;;;;;;;;;11.90;99.90;;;;;;4988618;28;19926;-72
2023/05/12 05:26:44;;;;;;;;;;;12.00;99.90;;;;;;4986560;28;19988;-73
2023/05/12 05:29:10;;;;;;;;;;;12.30;99.90;;;;;;4990179;28;19930;-73
2023/05/12 05:31:39;;;;;;;;;;;12.10;99.90;;;;;;4991112;28;19925;-73
2023/05/12 05:34:04;;;;;;;;;;;12.20;99.90;;;;;;4993780;28;19926;-74
2023/05/12 05:36:30;;;;;;;;;;;12.20;99.90;;;;;;4993280;28;19966;-74
2023/05/12 05:38:55;;;;;;;;;;;12.30;99.90;;;;;;4991058;28;19926;-75
2023/05/12 05:41:22;;;;;;;;;;;12.40;99.90;;;;;;4993745;28;20010;-75
2023/05/12 05:43:47;;;;;;;;;;;12.50;99.90;;;;;;4993230;28;19929;-75
2023/05/12 05:46:13;;;;;;;;;;;13.10;99.90;;;;;;4994113;28;19932;-75
2023/05/12 05:48:59;;;;;;;;;;;12.60;99.90;;;;;;4995393;28;20036;-74
2023/05/12 05:51:24;;;;;;;;;;;12.60;99.90;;;;;;4994499;28;19925;-75
2023/05/12 05:53:50;;;;;;;;;;;12.70;99.90;;;;;;4994473;28;19926;-75
2023/05/12 05:56:15;;;;;;;;;;;12.80;99.90;;;;;;5009066;28;19932;-76
2023/05/12 05:58:41;;;;;;;;;;;12.90;99.90;;;;;;4995061;28;20313;-74
2023/05/12 06:01:07;;;;;;;;;;;12.80;99.90;;;;;;5012317;28;20727;-75
2023/05/12 06:03:32;;;;;;;;;;;12.90;99.90;;;;;;5009639;28;19933;-75
2023/05/12 06:06:01;;;;;;;;;;;13.00;99.90;;;;;;5008972;28;19929;-75
2023/05/12 06:08:29;;;;;;;;;;;13.10;99.90;;;;;;5008704;28;20322;-75
2023/05/12 06:10:58;;;;;;;;;;;13.20;99.90;;;;;;5008053;28;19922;-76
2023/05/12 06:13:23;;;;;;;;;;;13.30;99.90;;;;;;5009883;28;19932;-75
2023/05/12 06:15:51;;;;;;;;;;;13.40;99.90;;;;;;5010481;28;19925;-76
2023/05/12 06:18:17;;;;;;;;;;;13.50;99.90;;;;;;5012288;28;20400;-75
2023/05/12 06:20:45;;;;;;;;;;;13.60;99.90;;;;;;5013935;28;19948;-74
2023/05/12 06:23:11;;;;;;;;;;;13.70;99.90;;;;;;5013193;28;20373;-75
2023/05/12 06:25:37;;;;;;;;;;;13.80;99.90;;;;;;5012579;28;19932;-76
2023/05/12 06:28:03;;;;;;;;;;;14.00;99.90;;;;;;5013334;28;19947;-75
2023/05/12 06:30:28;;;;;;;;;;;14.00;99.90;;;;;;5012583;28;20411;-76
2023/05/12 06:32:54;;;;;;;;;;;14.10;99.90;;;;;;5012580;28;19926;-76
2023/05/12 06:35:20;;;;;;;;;;;14.30;99.90;;;;;;5013544;28;20316;-76
2023/05/12 06:37:49;;;;;;;;;;;14.40;99.90;;;;;;5012355;28;19972;-76
2023/05/12 06:40:15;;;;;;;;;;;14.50;99.90;;;;;;5012544;28;19929;-75
2023/05/12 06:42:41;;;;;;;;;;;14.60;99.90;;;;;;5012298;28;19976;-75
2023/05/12 06:45:07;;;;;;;;;;;14.60;99.90;;;;;;5013287;28;19929;-76
2023/05/12 06:47:33;;;;;;;;;;;14.60;99.90;;;;;;4994977;28;19945;-76
2023/05/12 06:49:58;;;;;;;;;;;14.60;99.90;;;;;;5012928;28;20012;-76
2023/05/12 06:52:26;;;;;;;;;;;14.60;99.90;;;;;;5013423;28;20377;-76
2023/05/12 06:54:52;;;;;;;;;;;14.70;99.90;;;;;;4994761;28;19925;-76
2023/05/12 06:57:17;;;;;;;;;;;14.70;99.90;;;;;;5013105;28;19938;-76
2023/05/12 06:59:43;;;;;;;;;;;14.80;99.90;;;;;;5012444;28;19926;-76
2023/05/12 07:02:12;;;;;;;;;;;14.80;99.90;;;;;;4994906;28;19976;-76
2023/05/12 07:04:37;;;;;;;;;;;14.70;99.90;;;;;;4980022;28;20383;-78
2023/05/12 07:07:06;;;;;;;;;;;14.70;99.90;;;;;;4994419;28;19976;-77
2023/05/12 07:09:31;;;;;;;;;;;14.70;99.90;;;;;;4995763;28;19972;-74
2023/05/12 07:11:58;;;;;;;;;;;14.60;99.90;;;;;;5012127;28;19972;-76
2023/05/12 07:14:23;;;;;;;;;;;14.60;99.90;;;;;;5011908;28;19945;-74
2023/05/12 07:16:49;;;;;;;;;;;14.70;99.90;;;;;;4995389;28;19929;-72
2023/05/12 07:19:15;;;;;;;;;;;14.70;99.90;;;;;;5012530;28;19926;-74
2023/05/12 07:21:40;;;;;;;;;;;14.70;99.90;;;;;;4994581;28;19932;-73
2023/05/12 07:24:06;;;;;;;;;;;14.80;99.90;;;;;;5012500;28;19932;-73
2023/05/12 07:26:31;;;;;;;;;;;14.90;99.90;;;;;;5012890;28;19958;-73
2023/05/12 07:28:59;;;;;;;;;;;15.00;99.90;;;;;;4993925;28;20396;-72
2023/05/12 07:31:25;;;;;;;;;;;15.10;99.90;;;;;;5012499;28;19926;-74
2023/05/12 07:33:50;;;;;;;;;;;15.10;99.90;;;;;;5012373;28;20258;-73
2023/05/12 07:36:16;;;;;;;;;;;15.20;99.90;;;;;;5011052;28;20375;-73
2023/05/12 07:38:41;;;;;;;;;;;15.40;99.90;;;;;;5011521;28;20377;-73
2023/05/12 07:41:07;;;;;;;;;;;15.40;99.90;;;;;;4992908;28;19936;-73
2023/05/12 07:43:35;;;;;;;;;;;15.50;99.90;;;;;;5010079;28;19999;-74
2023/05/12 07:46:01;;;;;;;;;;;15.60;99.90;;;;;;5010868;28;19929;-74
2023/05/12 07:48:26;;;;;;;;;;;15.80;99.90;;;;;;4993714;28;19926;-74
2023/05/12 07:50:56;;;;;;;;;;;15.90;99.90;;;;;;5010387;28;19976;-73
2023/05/12 07:53:21;;;;;;;;;;;16.00;99.90;;;;;;5011272;28;19997;-73
2023/05/12 07:55:47;;;;;;;;;;;16.10;99.90;;;;;;4992458;28;19929;-73
2023/05/12 07:58:12;;;;;;;;;;;16.10;99.90;;;;;;4992476;28;19925;-73
2023/05/12 08:00:42;;;;;;;;;;;16.30;99.90;;;;;;4993373;28;19926;-73
2023/05/12 08:03:07;;;;;;;;;;;16.30;99.90;;;;;;5010127;28;19932;-73
2023/05/12 08:05:33;;;;;;;;;;;16.40;99.90;;;;;;5010710;28;19926;-73
2023/05/12 08:07:58;;;;;;;;;;;16.30;99.90;;;;;;5010503;28;19945;-74
2023/05/12 08:10:28;;;;;;;;;;;16.50;99.90;;;;;;5010144;28;19929;-74
2023/05/12 08:12:54;;;;;;;;;;;16.60;99.90;;;;;;5010303;28;19971;-74
2023/05/12 08:15:19;;;;;;;;;;;16.70;99.90;;;;;;5010486;28;19929;-73
2023/05/12 08:17:45;;;;;;;;;;;16.80;99.90;;;;;;4992495;28;20419;-74
2023/05/12 08:20:10;;;;;;;;;;;16.80;99.90;;;;;;5010198;28;19921;-74
2023/05/12 08:22:36;;;;;;;;;;;16.90;99.90;;;;;;5010349;28;19933;-73
2023/05/12 08:25:02;;;;;;;;;;;17.00;99.90;;;;;;4992087;28;20020;-74
2023/05/12 08:27:28;;;;;;;;;;;17.00;99.90;;;;;;4992782;28;19930;-74
2023/05/12 08:29:54;;;;;;;;;;;17.10;99.90;;;;;;5010312;28;20023;-72
2023/05/12 08:32:19;;;;;;;;;;;17.10;99.90;;;;;;4992500;28;20048;-71
2023/05/12 08:34:45;;;;;;;;;;;17.20;99.90;;;;;;5010525;28;19993;-71
2023/05/12 08:37:10;;;;;;;;;;;17.20;99.90;;;;;;5010468;28;19932;-71
2023/05/12 08:39:39;;;;;;;;;;;17.20;99.90;;;;;;5009592;28;19941;-73
2023/05/12 08:42:09;;;;;;;;;;;17.30;99.90;;;;;;4992597;28;20330;-71
2023/05/12 08:44:36;;;;;;;;;;;17.30;99.90;;;;;;4993176;28;19933;-71
2023/05/12 08:47:03;;;;;;;;;;;17.50;99.90;;;;;;5011438;28;19949;-70
2023/05/12 08:49:30;;;;;;;;;;;17.70;99.90;;;;;;4998037;28;19952;-71
2023/05/12 08:51:55;;;;;;;;;;;17.90;99.90;;;;;;5015883;28;19921;-72
2023/05/12 08:54:24;;;;;;;;;;;18.10;99.90;;;;;;4996574;28;20392;-71
2023/05/12 08:56:50;;;;;;;;;;;18.40;99.90;;;;;;4990624;28;19929;-72
2023/05/12 08:59:16;;;;;;;;;;;18.80;99.90;;;;;;4989804;28;19932;-72
2023/05/12 09:01:41;;;;;;;;;;;19.20;99.90;;;;;;4990830;28;19960;-71
2023/05/12 09:04:07;;;;;;;;;;;19.50;99.90;;;;;;4990320;28;20480;-72
2023/05/12 09:06:39;;;;;;;;;;;20.00;99.90;;;;;;4992582;28;20056;-72
2023/05/12 09:09:08;;;;;;;;;;;20.50;99.90;;;;;;4995335;28;20395;-72
2023/05/12 09:11:34;;;;;;;;;;;21.10;99.90;;;;;;4993203;28;20373;-72
2023/05/12 09:14:01;;;;;;;;;;;21.60;99.90;;;;;;4994773;28;19933;-72
2023/05/12 09:16:32;;;;;;;;;;;22.30;99.90;;;;;;4993781;28;19933;-72
2023/05/12 09:18:58;;;;;;;;;;;23.00;99.90;;;;;;4995254;28;20283;-72
2023/05/12 09:21:25;;;;;;;;;;;23.10;99.90;;;;;;4994547;28;19934;-72
2023/05/12 09:23:53;;;;;;;;;;;22.90;99.90;;;;;;4995051;28;19926;-72
2023/05/12 09:26:20;;;;;;;;;;;22.70;99.90;;;;;;4993492;28;19961;-72
2023/05/12 09:28:45;;;;;;;;;;;22.60;99.90;;;;;;4992797;28;19992;-72
2023/05/12 09:31:14;;;;;;;;;;;22.70;99.90;;;;;;4995000;28;19975;-72
2023/05/12 09:33:43;;;;;;;;;;;22.80;99.90;;;;;;4994141;28;19933;-71
2023/05/12 09:36:09;;;;;;;;;;;22.50;99.90;;;;;;4992755;28;19933;-73
2023/05/12 09:38:34;;;;;;;;;;;22.80;99.90;;;;;;4993491;28;19929;-72
2023/05/12 09:41:00;;;;;;;;;;;22.80;99.90;;;;;;4993496;28;19925;-71
2023/05/12 09:43:25;;;;;;;;;;;23.20;99.90;;;;;;4994280;28;20012;-72
2023/05/12 09:45:51;;;;;;;;;;;23.20;99.90;;;;;;4994768;28;19926;-72
2023/05/12 09:48:16;;;;;;;;;;;23.40;99.90;;;;;;4993752;28;20289;-71
2023/05/12 09:50:49;;;;;;;;;;;23.70;99.90;;;;;;4994230;28;19925;-72
2023/05/12 09:53:16;;;;;;;;;;;23.90;99.90;;;;;;4994478;28;20385;-72
2023/05/12 09:55:42;;;;;;;;;;;24.10;99.90;;;;;;4993625;28;19973;-72
2023/05/12 09:58:13;;;;;;;;;;;24.30;99.90;;;;;;4995385;28;19937;-73
2023/05/12 10:00:40;;;;;;;;;;;24.50;99.90;;;;;;4993024;28;19932;-74
2023/05/12 10:03:13;;;;;;;;;;;24.50;99.90;;;;;;4993804;28;19926;-75
2023/05/12 10:05:49;;;;;;;;;;;24.60;99.90;;;;;;4994303;28;19972;-74
2023/05/12 10:08:30;;;;;;;;;;;25.00;99.90;;;;;;4991916;28;20328;-73
2023/05/12 10:10:58;;;;;;;;;;;25.10;99.90;;;;;;4976352;28;20004;-73
2023/05/12 10:13:25;;;;;;;;;;;25.10;99.90;;;;;;4994381;28;20371;-74
2023/05/12 10:15:53;;;;;;;;;;;25.30;99.90;;;;;;4976180;28;20408;-75
2023/05/12 10:18:19;;;;;;;;;;;25.50;99.90;;;;;;4976180;28;19932;-75
2023/05/12 10:24:02;;;;;;;;;;;25.60;99.90;;;;;;4991595;28;20367;-74
2023/05/12 10:26:28;;;;;;;;;;;25.90;99.90;;;;;;4994186;28;19936;-72
2023/05/12 10:28:54;;;;;;;;;;;26.00;99.90;;;;;;4993961;28;19933;-73
2023/05/12 10:31:21;;;;;;;;;;;26.10;99.90;;;;;;4993334;28;20277;-73
2023/05/12 10:33:59;;;;;;;;;;;26.40;99.90;;;;;;4994250;28;20297;-73
2023/05/12 10:36:25;;;;;;;;;;;26.80;99.90;;;;;;4975876;28;19930;-72
2023/05/12 10:38:54;;;;;;;;;;;27.00;99.90;;;;;;4992995;28;19933;-73
2023/05/12 10:41:30;;;;;;;;;;;26.90;99.90;;;;;;4993874;28;20381;-72
2023/05/12 10:43:56;;;;;;;;;;;27.10;99.90;;;;;;4993776;28;19926;-74
2023/05/12 10:46:23;;;;;;;;;;;27.40;99.90;;;;;;4992822;28;20407;-77
2023/05/12 10:48:59;;;;;;;;;;;27.70;99.90;;;;;;4993574;28;20332;-74
2023/05/12 10:51:29;;;;;;;;;;;27.70;99.90;;;;;;4993905;28;19933;-76
2023/05/12 10:54:02;;;;;;;;;;;27.90;99.90;;;;;;4988076;28;20021;-74
2023/05/12 10:56:39;;;;;;;;;;;27.50;99.90;;;;;;4993057;28;19926;-76
2023/05/12 10:59:09;;;;;;;;;;;27.30;99.90;;;;;;4997063;28;19929;-74
2023/05/12 11:01:35;;;;;;;;;;;27.20;99.90;;;;;;4993084;28;20012;-75
2023/05/12 11:04:14;;;;;;;;;;;27.20;99.90;;;;;;4993368;28;20377;-74
2023/05/12 11:06:40;;;;;;;;;;;27.30;99.90;;;;;;4991942;28;19926;-73
2023/05/12 11:09:06;;;;;;;;;;;27.30;98.80;;;;;;4993548;28;20005;-72
2023/05/12 11:11:32;;;;;;;;;;;26.70;99.90;;;;;;4976155;28;20436;-73
2023/05/12 11:14:01;;;;;;;;;;;26.30;99.90;;;;;;4992229;28;19926;-71
2023/05/12 11:16:26;;;;;;;;;;;26.00;99.90;;;;;;4976335;28;19977;-74
2023/05/12 11:19:02;;;;;;;;;;;26.20;99.90;;;;;;4975521;28;19969;-73
2023/05/12 11:21:29;;;;;;;;;;;26.10;99.90;;;;;;4975088;28;19933;-75
2023/05/12 11:23:54;;;;;;;;;;;26.10;99.90;;;;;;4991904;28;19971;-74
2023/05/12 11:26:20;;;;;;;;;;;26.10;99.90;;;;;;4991835;28;19933;-73
2023/05/12 11:28:46;;;;;;;;;;;26.10;99.90;;;;;;4974449;28;19925;-73
2023/05/12 11:31:16;;;;;;;;;;;26.40;99.90;;;;;;4992773;28;19937;-75
2023/05/12 11:33:45;;;;;;;;;;;26.60;99.90;;;;;;4975948;28;19923;-74
2023/05/12 11:36:11;;;;;;;;;;;26.60;99.90;;;;;;4991813;28;20393;-75
2023/05/12 11:38:36;;;;;;;;;;;26.30;99.90;;;;;;4992820;28;19932;-75
2023/05/12 11:41:02;;;;;;;;;;;26.50;99.90;;;;;;4992063;28;19925;-75
2023/05/12 11:43:27;;;;;;;;;;;26.60;99.90;;;;;;4992646;28;19933;-75
2023/05/12 11:45:56;;;;;;;;;;;26.60;99.90;;;;;;4992357;28;20362;-75
2023/05/12 11:48:30;;;;;;;;;;;26.50;99.90;;;;;;4974994;28;20338;-74
2023/05/12 11:50:59;;;;;;;;;;;26.60;99.90;;;;;;4992384;28;19932;-76
2023/05/12 11:53:25;;;;;;;;;;;26.50;99.90;;;;;;4992501;28;20277;-75
2023/05/12 11:55:53;;;;;;;;;;;26.40;99.90;;;;;;4974198;28;19930;-73
2023/05/12 11:58:28;;;;;;;;;;;26.30;99.90;;;;;;4992085;28;19976;-74
2023/05/12 12:00:54;;;;;;;;;;;26.20;99.90;;;;;;4975192;28;19932;-75
2023/05/12 12:03:19;;;;;;;;;;;26.00;99.90;;;;;;4991840;28;19993;-74
2023/05/12 12:05:56;;;;;;;;;;;25.80;99.90;;;;;;4992240;28;19929;-74
2023/05/12 12:08:21;;;;;;;;;;;25.90;99.90;;;;;;4992348;28;19981;-73
2023/05/12 12:10:47;;;;;;;;;;;25.90;99.90;;;;;;4991673;28;19976;-72
2023/05/12 12:13:18;;;;;;;;;;;25.80;99.90;;;;;;4991915;28;19972;-73
2023/05/12 12:15:44;;;;;;;;;;;25.70;99.90;;;;;;4992356;28;20333;-72
2023/05/12 12:18:12;;;;;;;;;;;25.60;99.90;;;;;;4991201;28;19984;-73
2023/05/12 12:20:40;;;;;;;;;;;25.60;99.90;;;;;;4992439;28;19965;-74
2023/05/12 12:23:06;;;;;;;;;;;25.60;99.90;;;;;;4991158;28;19926;-74
2023/05/12 12:25:31;;;;;;;;;;;25.50;99.90;;;;;;4993310;28;20389;-74
2023/05/12 12:27:57;;;;;;;;;;;25.40;99.90;;;;;;4992016;28;19930;-75
2023/05/12 12:30:22;;;;;;;;;;;25.30;99.90;;;;;;4974393;28;20041;-75
2023/05/12 12:32:51;;;;;;;;;;;25.30;99.90;;;;;;4975116;28;19960;-75
2023/05/12 12:35:19;;;;;;;;;;;25.30;99.90;;;;;;4991790;28;20279;-75
2023/05/12 12:37:50;;;;;;;;;;;25.50;99.90;;;;;;4972155;28;20289;-75
2023/05/12 12:40:17;;;;;;;;;;;25.70;99.90;;;;;;4979976;28;20412;-75
2023/05/12 12:42:46;;;;;;;;;;;25.40;99.90;;;;;;4960373;28;19980;-75
2023/05/12 12:45:12;;;;;;;;;;;25.60;99.90;;;;;;4957744;28;19926;-74
2023/05/12 12:47:42;;;;;;;;;;;25.60;99.90;;;;;;4972998;28;19926;-75
2023/05/12 12:50:09;;;;;;;;;;;25.60;99.90;;;;;;4955623;28;19984;-75
2023/05/12 12:52:35;;;;;;;;;;;25.50;99.90;;;;;;4954776;28;19945;-75
2023/05/12 12:55:01;;;;;;;;;;;25.50;99.90;;;;;;4972324;28;20270;-74
2023/05/12 12:57:26;;;;;;;;;;;25.50;99.90;;;;;;4955075;28;19993;-75
2023/05/12 12:59:52;;;;;;;;;;;25.20;99.90;;;;;;4990056;28;19965;-74
2023/05/12 13:02:18;;;;;;;;;;;25.40;99.90;;;;;;4990925;28;20374;-76
2023/05/12 13:04:43;;;;;;;;;;;25.40;99.90;;;;;;4990182;28;20005;-75
2023/05/12 13:07:09;;;;;;;;;;;25.40;99.90;;;;;;4990807;28;19926;-76
2023/05/12 13:09:34;;;;;;;;;;;25.40;99.90;;;;;;4990993;28;20404;-76
2023/05/12 13:12:00;;;;;;;;;;;25.50;99.90;;;;;;4991570;28;19976;-76
2023/05/12 13:14:25;;;;;;;;;;;25.60;99.90;;;;;;4990873;28;19933;-75
2023/05/12 13:16:54;;;;;;;;;;;25.50;99.90;;;;;;4990628;28;20354;-75
2023/05/12 13:19:20;;;;;;;;;;;25.50;99.90;;;;;;4991333;28;20020;-75
2023/05/12 13:21:49;;;;;;;;;;;25.50;99.90;;;;;;4989993;28;19930;-74
2023/05/12 13:24:14;;;;;;;;;;;25.50;99.90;;;;;;4991638;28;20266;-76
2023/05/12 13:26:43;;;;;;;;;;;25.40;99.90;;;;;;4990828;28;19928;-75
2023/05/12 13:29:11;;;;;;;;;;;25.30;99.90;;;;;;4990492;28;20025;-75
2023/05/12 13:31:37;;;;;;;;;;;25.30;99.90;;;;;;4991305;28;19928;-75
2023/05/12 13:34:03;;;;;;;;;;;25.20;99.90;;;;;;4990267;28;20004;-74
2023/05/12 13:36:31;;;;;;;;;;;25.20;99.90;;;;;;4990422;28;19933;-75
2023/05/12 13:38:56;;;;;;;;;;;25.10;99.90;;;;;;4989638;28;20016;-75
2023/05/12 13:41:22;;;;;;;;;;;25.00;99.90;;;;;;4989516;28;20012;-75
2023/05/12 13:43:47;;;;;;;;;;;25.00;99.90;;;;;;4991370;28;19925;-75
2023/05/12 13:46:16;;;;;;;;;;;25.30;99.90;;;;;;4991241;28;20278;-75
2023/05/12 13:48:41;;;;;;;;;;;25.80;99.90;;;;;;4989515;28;19926;-75
2023/05/12 13:51:07;;;;;;;;;;;25.00;99.90;;;;;;4990869;28;20349;-75
2023/05/12 13:53:34;;;;;;;;;;;25.00;99.90;;;;;;4993860;28;20008;-75
2023/05/12 13:56:06;;;;;;;;;;;25.00;99.90;;;;;;4991873;28;19962;-75
2023/05/12 13:58:31;;;;;;;;;;;25.10;99.90;;;;;;4994543;28;19926;-74
2023/05/12 14:00:57;;;;;;;;;;;25.00;99.90;;;;;;4994407;28;19984;-75
2023/05/12 14:03:22;;;;;;;;;;;24.80;99.90;;;;;;4992559;28;19973;-75
2023/05/12 14:05:53;;;;;;;;;;;24.60;99.90;;;;;;4993865;28;20387;-74
2023/05/12 14:08:18;;;;;;;;;;;24.50;99.90;;;;;;4994439;28;19926;-75
2023/05/12 14:10:44;;;;;;;;;;;24.50;99.90;;;;;;4993813;28;19933;-74
2023/05/12 14:13:09;;;;;;;;;;;24.50;99.90;;;;;;4994279;28;20016;-75
2023/05/12 14:15:35;;;;;;;;;;;24.50;99.90;;;;;;4994333;28;20577;-75
2023/05/12 14:18:00;;;;;;;;;;;24.60;99.90;;;;;;4993499;28;20340;-72
2023/05/12 14:20:26;;;;;;;;;;;24.60;99.90;;;;;;4993104;28;20381;-72
2023/05/12 14:22:51;;;;;;;;;;;24.60;99.90;;;;;;4993409;28;19948;-73
2023/05/12 14:25:20;;;;;;;;;;;24.50;99.90;;;;;;4992728;28;20377;-75
2023/05/12 14:27:45;;;;;;;;;;;24.50;99.80;;;;;;4994394;28;19933;-73
2023/05/12 14:30:11;;;;;;;;;;;24.60;99.00;;;;;;4993218;28;19930;-73
2023/05/12 14:32:39;;;;;;;;;;;24.70;98.90;;;;;;4994002;28;19925;-76
2023/05/12 14:35:05;;;;;;;;;;;24.80;98.70;;;;;;4993634;28;19926;-75
2023/05/12 14:37:31;;;;;;;;;;;24.80;99.10;;;;;;4993202;28;20374;-74
2023/05/12 14:39:57;;;;;;;;;;;24.80;99.30;;;;;;4993869;28;19926;-73
2023/05/12 14:42:28;;;;;;;;;;;24.60;98.70;;;;;;4993690;28;19930;-78
2023/05/12 14:44:54;;;;;;;;;;;24.50;98.60;;;;;;4993086;28;19926;-77
2023/05/12 14:47:19;;;;;;;;;;;24.30;98.60;;;;;;4992625;28;19925;-78
2023/05/12 14:49:45;;;;;;;;;;;24.20;98.70;;;;;;4972796;28;19930;-79
2023/05/12 14:52:10;;;;;;;;;;;24.00;99.60;;;;;;4981523;28;19926;-78
2023/05/12 14:54:36;;;;;;;;;;;23.80;99.10;;;;;;4994239;28;19961;-78
2023/05/12 14:57:02;;;;;;;;;;;23.60;99.10;;;;;;5010795;28;19948;-76
2023/05/12 14:59:29;;;;;;;;;;;23.30;99.40;;;;;;4993446;28;19925;-76
2023/05/12 15:01:54;;;;;;;;;;;23.10;98.80;;;;;;5011785;28;19933;-74
2023/05/12 15:04:20;;;;;;;;;;;22.90;99.30;;;;;;5011831;28;19925;-77
2023/05/12 15:06:45;;;;;;;;;;;22.70;98.40;;;;;;5012019;28;19921;-75
2023/05/12 15:09:11;;;;;;;;;;;22.50;99.10;;;;;;4995641;28;20020;-76
2023/05/12 15:11:37;;;;;;;;;;;22.30;98.70;;;;;;5012583;28;19925;-79
2023/05/12 15:14:03;;;;;;;;;;;22.00;99.10;;;;;;4995339;28;19948;-76
2023/05/12 15:16:29;;;;;;;;;;;21.90;99.90;;;;;;5012123;28;19975;-74